createdAt,value
2018-11-29T00:02:26.809Z,96165.44
2018-11-29T00:04:59.806Z,96165.74
2018-11-29T00:07:39.109Z,96164.63
2018-11-29T00:10:11.178Z,96167.18
2018-11-29T00:12:44.137Z,96161.77
2018-11-29T00:15:17.298Z,96159.73
2018-11-29T00:17:49.355Z,96162.66
2018-11-29T00:20:24.578Z,96166.66
2018-11-29T00:22:56.528Z,96161.58
2018-11-29T00:25:28.623Z,96158.67
2018-11-29T00:28:00.664Z,96150.08
2018-11-29T00:30:32.797Z,96147.45
2018-11-29T00:33:04.840Z,96157.66
2018-11-29T00:35:36.978Z,96140.54
2018-11-29T00:38:09.204Z,96146.23
2018-11-29T00:40:41.243Z,96148.88
2018-11-29T00:43:13.331Z,96157.23
2018-11-29T00:45:45.421Z,96165.09
2018-11-29T00:48:17.501Z,96168.13
2018-11-29T00:50:49.583Z,96176.08
2018-11-29T00:53:21.675Z,96160.47
2018-11-29T00:55:53.758Z,96181.46
2018-11-29T00:58:25.730Z,96176.23
2018-11-29T01:00:57.813Z,96173.80
2018-11-29T01:03:29.844Z,96163.30
2018-11-29T01:06:01.860Z,96154.23
2018-11-29T01:08:33.979Z,96148.58
2018-11-29T01:11:06.174Z,96154.55
2018-11-29T01:13:38.214Z,96158.56
2018-11-29T01:16:10.363Z,96156.59
2018-11-29T01:18:42.419Z,96152.07
2018-11-29T01:21:14.533Z,96154.63
2018-11-29T01:23:46.520Z,96158.18
2018-11-29T01:26:18.635Z,96155.62
2018-11-29T01:28:50.694Z,96153.72
2018-11-29T01:31:22.779Z,96157.83
2018-11-29T01:33:54.847Z,96161.06
2018-11-29T01:36:26.936Z,96165.03
2018-11-29T01:38:58.981Z,96154.77
2018-11-29T01:41:31.088Z,96161.96
2018-11-29T01:44:03.152Z,96163.86
2018-11-29T01:46:35.257Z,96159.77
2018-11-29T01:49:07.318Z,96158.45
2018-11-29T01:51:39.432Z,96158.78
2018-11-29T01:54:11.500Z,96166.50
2018-11-29T01:56:43.614Z,96163.84
2018-11-29T01:59:15.712Z,96158.45
2018-11-29T02:01:47.808Z,96161.50
2018-11-29T02:04:19.924Z,96164.73
2018-11-29T02:06:51.992Z,96175.42
2018-11-29T02:09:24.973Z,96162.53
2018-11-29T02:11:57.062Z,96153.94
2018-11-29T02:14:29.140Z,96149.83
2018-11-29T02:17:01.341Z,96146.25
2018-11-29T02:19:33.410Z,96143.99
2018-11-29T02:22:05.716Z,96149.57
2018-11-29T02:24:37.688Z,96151.16
2018-11-29T02:27:10.709Z,96148.53
2018-11-29T02:29:42.900Z,96139.63
2018-11-29T02:32:15.008Z,96124.38
2018-11-29T02:34:47.061Z,96117.36
2018-11-29T02:37:19.173Z,96101.94
2018-11-29T02:39:51.281Z,96100.88
2018-11-29T02:42:23.427Z,96092.77
2018-11-29T02:44:55.510Z,96093.25
2018-11-29T02:47:27.606Z,96094.69
2018-11-29T02:49:59.673Z,96090.00
2018-11-29T02:52:31.755Z,96089.03
2018-11-29T02:55:03.828Z,96089.78
2018-11-29T02:57:36.131Z,96092.88
2018-11-29T03:00:17.594Z,96111.61
2018-11-29T03:02:49.719Z,96108.03
2018-11-29T03:05:21.832Z,96103.04
2018-11-29T03:07:53.798Z,96102.66
2018-11-29T03:10:28.685Z,96105.87
2018-11-29T03:13:00.768Z,96098.98
2018-11-29T03:15:32.864Z,96094.89
2018-11-29T03:18:04.967Z,96094.42
2018-11-29T03:20:37.094Z,96095.48
2018-11-29T03:23:09.526Z,96092.39
2018-11-29T03:25:41.655Z,96078.39
2018-11-29T03:28:13.757Z,96077.45
2018-11-29T03:30:45.829Z,96075.00
2018-11-29T03:33:18.861Z,96074.06
2018-11-29T03:35:50.845Z,96070.08
2018-11-29T03:38:22.938Z,96069.58
2018-11-29T03:40:55.009Z,96066.28
2018-11-29T03:43:27.218Z,96062.01
2018-11-29T03:45:59.250Z,96061.53
2018-11-29T03:48:31.315Z,96047.91
2018-11-29T03:51:03.297Z,96036.48
2018-11-29T03:53:35.438Z,96040.91
2018-11-29T03:56:08.060Z,96038.36
2018-11-29T03:58:40.184Z,96039.50
2018-11-29T04:01:12.248Z,96047.33
2018-11-29T04:03:44.337Z,96049.07
2018-11-29T04:06:16.399Z,96047.05
2018-11-29T04:08:48.525Z,96048.93
2018-11-29T04:11:20.625Z,96039.98
2018-11-29T04:13:52.666Z,96033.66
2018-11-29T04:16:24.744Z,96032.48
2018-11-29T04:18:56.928Z,96036.48
2018-11-29T04:21:29.020Z,96032.06
2018-11-29T04:24:01.096Z,96028.75
2018-11-29T04:26:33.185Z,96028.06
2018-11-29T04:29:05.282Z,96033.28
2018-11-29T04:31:38.277Z,96031.84
2018-11-29T04:34:10.346Z,96036.30
2018-11-29T04:36:42.400Z,96031.03
2018-11-29T04:39:14.480Z,96025.52
2018-11-29T04:41:46.543Z,96024.13
2018-11-29T04:44:18.614Z,96016.79
2018-11-29T04:46:52.255Z,96015.13
2018-11-29T04:49:24.399Z,96013.69
2018-11-29T04:51:56.462Z,96016.17
2018-11-29T04:54:28.545Z,96010.45
2018-11-29T04:57:00.605Z,96002.96
2018-11-29T04:59:32.653Z,95996.92
2018-11-29T05:02:04.748Z,95996.45
2018-11-29T05:04:36.969Z,95993.02
2018-11-29T05:07:09.076Z,95987.83
2018-11-29T05:09:41.285Z,95991.66
2018-11-29T05:12:13.468Z,95985.42
2018-11-29T05:14:45.782Z,95990.88
2018-11-29T05:17:17.854Z,95988.31
2018-11-29T05:19:49.939Z,95995.30
2018-11-29T05:22:22.041Z,95995.02
2018-11-29T05:24:54.164Z,95991.81
2018-11-29T05:27:26.361Z,95998.20
2018-11-29T05:29:58.521Z,95998.20
2018-11-29T05:32:30.605Z,95996.94
2018-11-29T05:35:02.715Z,95986.14
2018-11-29T05:37:35.671Z,95977.77
2018-11-29T05:40:12.879Z,95982.64
2018-11-29T05:42:45.291Z,95984.22
2018-11-29T05:45:18.316Z,95992.91
2018-11-29T05:47:50.421Z,95986.42
2018-11-29T05:50:25.353Z,95988.69
2018-11-29T05:52:57.340Z,95989.98
2018-11-29T05:55:29.500Z,95995.47
2018-11-29T05:58:01.501Z,95995.19
2018-11-29T06:00:34.549Z,95998.16
2018-11-29T06:03:06.720Z,95992.70
2018-11-29T06:05:39.502Z,95988.65
2018-11-29T06:08:11.671Z,95982.22
2018-11-29T06:10:43.740Z,95982.03
2018-11-29T06:13:15.804Z,95975.27
2018-11-29T06:15:47.814Z,95973.82
2018-11-29T06:18:19.875Z,95975.98
2018-11-29T06:20:52.114Z,95982.76
2018-11-29T06:23:24.210Z,95985.50
2018-11-29T06:25:56.374Z,95977.37
2018-11-29T06:28:28.466Z,95980.53
2018-11-29T06:31:00.643Z,95985.59
2018-11-29T06:33:32.794Z,95984.59
2018-11-29T06:36:04.972Z,95986.55
2018-11-29T06:38:37.136Z,95991.86
2018-11-29T06:41:09.737Z,95997.09
2018-11-29T06:43:41.868Z,95993.91
2018-11-29T06:46:13.973Z,95995.44
2018-11-29T06:48:46.068Z,95985.09
2018-11-29T06:51:18.273Z,95986.26
2018-11-29T06:53:59.866Z,95971.44
2018-11-29T06:56:31.987Z,95964.39
2018-11-29T06:59:04.084Z,95965.95
2018-11-29T07:01:36.275Z,95953.55
2018-11-29T07:04:08.466Z,95949.14
2018-11-29T07:06:40.485Z,95953.38
2018-11-29T07:09:12.540Z,95950.48
2018-11-29T07:11:44.643Z,95952.11
2018-11-29T07:14:16.695Z,95951.42
2018-11-29T07:16:48.794Z,95950.03
2018-11-29T07:19:20.889Z,95957.16
2018-11-29T07:21:57.248Z,95965.45
2018-11-29T07:24:29.356Z,95964.73
2018-11-29T07:27:01.484Z,95966.86
2018-11-29T07:29:36.536Z,95967.05
2018-11-29T07:32:11.864Z,95966.88
2018-11-29T07:34:44.848Z,95965.98
2018-11-29T07:37:17.450Z,95959.39
2018-11-29T07:39:49.650Z,95957.98
2018-11-29T07:42:21.759Z,95960.13
2018-11-29T07:44:53.889Z,95961.30
2018-11-29T07:47:26.076Z,95953.91
2018-11-29T07:49:58.205Z,95944.83
2018-11-29T07:52:30.354Z,95932.23
2018-11-29T07:55:02.455Z,95931.50
2018-11-29T07:57:34.577Z,95939.12
2018-11-29T08:00:09.000Z,95933.98
2018-11-29T08:02:41.095Z,95928.99
2018-11-29T08:05:14.973Z,95930.09
2018-11-29T08:07:50.750Z,95927.73
2018-11-29T08:10:23.097Z,95924.67
2018-11-29T08:12:55.195Z,95926.39
2018-11-29T08:15:27.327Z,95934.97
2018-11-29T08:17:59.511Z,95931.59
2018-11-29T08:20:31.585Z,95937.96
2018-11-29T08:23:03.697Z,95923.87
2018-11-29T08:25:35.816Z,95920.08
2018-11-29T08:28:08.066Z,95929.31
2018-11-29T08:30:40.155Z,95926.97
2018-11-29T08:33:12.300Z,95920.36
2018-11-29T08:35:44.453Z,95914.60
2018-11-29T08:38:16.615Z,95908.64
2018-11-29T08:40:48.810Z,95904.84
2018-11-29T08:43:23.060Z,95910.63
2018-11-29T08:45:55.257Z,95904.77
2018-11-29T08:48:27.372Z,95901.30
2018-11-29T08:50:59.514Z,95904.58
2018-11-29T08:53:31.629Z,95892.46
2018-11-29T08:56:03.703Z,95881.88
2018-11-29T08:58:35.876Z,95886.34
2018-11-29T09:01:08.066Z,95881.14
2018-11-29T09:03:40.174Z,95875.11
2018-11-29T09:06:12.216Z,95872.13
2018-11-29T09:08:44.416Z,95870.00
2018-11-29T09:11:16.484Z,95867.59
2018-11-29T09:13:48.575Z,95862.14
2018-11-29T09:16:20.633Z,95865.84
2018-11-29T09:18:52.727Z,95853.45
2018-11-29T09:21:24.832Z,95858.73
2018-11-29T09:23:57.108Z,95862.22
2018-11-29T09:26:29.367Z,95862.63
2018-11-29T09:29:01.520Z,95863.98
2018-11-29T09:31:33.791Z,95852.31
2018-11-29T09:34:06.166Z,95851.06
2018-11-29T09:36:38.311Z,95851.45
2018-11-29T09:39:11.627Z,95852.70
2018-11-29T09:41:43.782Z,95844.47
2018-11-29T09:44:15.958Z,95844.95
2018-11-29T09:46:48.069Z,95835.72
2018-11-29T09:49:20.158Z,95828.42
2018-11-29T09:51:52.249Z,95825.45
2018-11-29T09:54:24.361Z,95818.59
2018-11-29T09:56:56.441Z,95799.17
2018-11-29T09:59:28.622Z,95797.36
2018-11-29T10:02:00.717Z,95800.78
2018-11-29T10:04:32.847Z,95796.19
2018-11-29T10:07:04.987Z,95791.62
2018-11-29T10:09:37.032Z,95808.83
2018-11-29T10:12:09.159Z,95813.31
2018-11-29T10:14:42.290Z,95800.34
2018-11-29T10:17:14.389Z,95810.11
2018-11-29T10:19:46.560Z,95810.30
2018-11-29T10:22:18.667Z,95808.81
2018-11-29T10:24:50.735Z,95808.73
2018-11-29T10:27:22.826Z,95809.34
2018-11-29T10:29:54.819Z,95796.20
2018-11-29T10:32:27.817Z,95802.39
2018-11-29T10:35:00.134Z,95797.97
2018-11-29T10:37:32.395Z,95787.52
2018-11-29T10:40:05.127Z,95782.19
2018-11-29T10:42:37.257Z,95782.58
2018-11-29T10:45:16.949Z,95777.53
2018-11-29T10:47:52.505Z,95777.44
2018-11-29T10:50:23.891Z,95768.97
2018-11-29T10:52:55.940Z,95760.75
2018-11-29T10:55:28.083Z,95759.36
2018-11-29T10:58:00.281Z,95754.91
2018-11-29T11:00:54.117Z,95749.70
2018-11-29T11:03:26.246Z,95748.83
2018-11-29T11:05:58.375Z,95751.34
2018-11-29T11:08:30.453Z,95745.65
2018-11-29T11:11:08.899Z,95734.05
2018-11-29T11:13:41.331Z,95729.08
2018-11-29T11:16:16.944Z,95735.74
2018-11-29T11:18:49.044Z,95735.81
2018-11-29T11:21:21.207Z,95734.41
2018-11-29T11:23:59.201Z,95732.97
2018-11-29T11:26:26.311Z,95733.16
2018-11-29T11:28:58.388Z,95730.67
2018-11-29T11:31:31.234Z,95734.17
2018-11-29T11:34:03.466Z,95735.25
2018-11-29T11:36:35.654Z,95728.36
2018-11-29T11:39:09.857Z,95721.48
2018-11-29T11:41:42.066Z,95707.14
2018-11-29T11:44:14.287Z,95698.95
2018-11-29T11:46:46.423Z,95700.97
2018-11-29T11:49:18.527Z,95696.19
2018-11-29T11:51:50.643Z,95684.33
2018-11-29T11:54:22.642Z,95683.14
2018-11-29T11:56:54.868Z,95668.77
2018-11-29T11:59:26.941Z,95666.29
2018-11-29T12:01:59.531Z,95669.69
2018-11-29T12:04:31.798Z,95660.30
2018-11-29T12:07:04.048Z,95657.77
2018-11-29T12:09:36.292Z,95662.87
2018-11-29T12:12:08.844Z,95663.81
2018-11-29T12:14:41.067Z,95656.17
2018-11-29T12:17:13.131Z,95663.08
2018-11-29T12:19:45.252Z,95663.79
2018-11-29T12:22:17.383Z,95659.73
2018-11-29T12:24:50.407Z,95663.87
2018-11-29T12:27:22.508Z,95656.15
2018-11-29T12:29:54.675Z,95653.66
2018-11-29T12:32:26.916Z,95650.11
2018-11-29T12:34:58.980Z,95648.08
2018-11-29T12:37:31.150Z,95647.98
2018-11-29T12:40:03.241Z,95655.28
2018-11-29T12:42:35.441Z,95652.40
2018-11-29T12:45:12.376Z,95643.23
2018-11-29T12:47:45.106Z,95646.17
2018-11-29T12:50:25.019Z,95645.03
2018-11-29T12:52:57.052Z,95641.36
2018-11-29T12:55:29.561Z,95633.30
2018-11-29T12:58:05.721Z,95629.72
2018-11-29T13:00:34.857Z,95628.70
2018-11-29T13:05:42.251Z,95617.86
2018-11-29T13:08:14.374Z,95621.53
2018-11-29T13:10:46.685Z,95610.01
2018-11-29T13:13:18.888Z,95615.05
2018-11-29T13:15:51.032Z,95609.32
2018-11-29T13:18:23.171Z,95598.69
2018-11-29T13:21:03.604Z,95602.92
2018-11-29T13:23:35.790Z,95605.84
2018-11-29T13:26:08.159Z,95603.86
2018-11-29T13:28:40.194Z,95600.20
2018-11-29T13:31:12.274Z,95598.35
2018-11-29T13:33:44.423Z,95590.74
2018-11-29T13:36:16.479Z,95587.14
2018-11-29T13:38:48.588Z,95579.47
2018-11-29T13:41:20.655Z,95587.26
2018-11-29T13:43:53.638Z,95579.77
2018-11-29T13:46:25.740Z,95589.55
2018-11-29T13:48:57.879Z,95588.53
2018-11-29T13:51:29.956Z,95589.37
2018-11-29T13:54:02.073Z,95588.97
2018-11-29T13:56:34.371Z,95587.17
2018-11-29T13:59:06.587Z,95582.02
2018-11-29T14:01:38.917Z,95587.76
2018-11-29T14:04:11.094Z,95585.14
2018-11-29T14:06:43.192Z,95584.33
2018-11-29T14:09:15.356Z,95579.02
2018-11-29T14:11:47.458Z,95578.95
2018-11-29T14:14:19.678Z,95575.61
2018-11-29T14:16:51.803Z,95574.53
2018-11-29T14:19:24.026Z,95574.00
2018-11-29T14:21:56.102Z,95579.59
2018-11-29T14:24:28.213Z,95583.23
2018-11-29T14:27:00.311Z,95574.23
2018-11-29T14:29:32.414Z,95578.38
2018-11-29T14:32:04.561Z,95568.16
2018-11-29T14:34:36.697Z,95573.20
2018-11-29T14:37:09.923Z,95557.98
2018-11-29T14:39:41.949Z,95570.39
2018-11-29T14:42:14.026Z,95563.19
2018-11-29T14:44:46.084Z,95573.48
2018-11-29T14:47:18.239Z,95571.02
2018-11-29T14:49:50.257Z,95569.27
2018-11-29T14:52:22.415Z,95566.23
2018-11-29T14:54:54.648Z,95566.97
2018-11-29T14:57:26.649Z,95573.93
2018-11-29T14:59:59.540Z,95573.03
2018-11-29T15:02:31.619Z,95571.22
2018-11-29T15:05:07.752Z,95564.78
2018-11-29T15:07:36.892Z,95564.28
2018-11-29T15:10:10.775Z,95569.76
2018-11-29T15:12:42.953Z,95570.34
2018-11-29T15:15:15.762Z,95567.36
2018-11-29T15:17:48.888Z,95571.80
2018-11-29T15:20:35.568Z,95577.05
2018-11-29T15:23:09.710Z,95581.48
2018-11-29T15:25:41.857Z,95588.59
2018-11-29T15:28:13.941Z,95588.59
2018-11-29T15:30:46.101Z,95583.22
2018-11-29T15:33:18.180Z,95582.28
2018-11-29T15:35:50.367Z,95569.32
2018-11-29T15:38:22.573Z,95569.50
2018-11-29T15:40:54.764Z,95583.98
2018-11-29T15:43:26.776Z,95577.28
2018-11-29T15:45:59.041Z,95582.91
2018-11-29T15:48:31.165Z,95576.16
2018-11-29T15:51:03.339Z,95581.00
2018-11-29T15:53:35.458Z,95572.16
2018-11-29T15:56:07.617Z,95579.55
2018-11-29T15:58:39.710Z,95578.37
2018-11-29T16:01:11.779Z,95580.52
2018-11-29T16:03:44.075Z,95581.41
2018-11-29T16:06:18.626Z,95578.92
2018-11-29T16:08:49.124Z,95581.98
2018-11-29T16:11:21.358Z,95585.66
2018-11-29T16:13:53.465Z,95601.36
2018-11-29T16:16:25.568Z,95606.06
2018-11-29T16:18:57.759Z,95605.91
2018-11-29T16:21:29.863Z,95591.70
2018-11-29T16:24:01.960Z,95596.13
2018-11-29T16:26:34.107Z,95600.48
2018-11-29T16:29:06.571Z,95603.45
2018-11-29T16:31:38.758Z,95601.26
2018-11-29T16:34:10.821Z,95602.22
2018-11-29T16:36:42.996Z,95598.77
2018-11-29T16:39:15.221Z,95594.92
2018-11-29T16:41:47.290Z,95597.72
2018-11-29T16:44:19.438Z,95592.59
2018-11-29T16:46:51.564Z,95583.89
2018-11-29T16:49:23.732Z,95589.20
2018-11-29T16:51:55.912Z,95582.55
2018-11-29T16:54:27.973Z,95579.94
2018-11-29T16:57:00.119Z,95583.30
2018-11-29T16:59:32.223Z,95579.63
2018-11-29T17:02:04.491Z,95575.45
2018-11-29T17:04:36.747Z,95571.95
2018-11-29T17:07:09.396Z,95576.36
2018-11-29T17:09:41.612Z,95590.44
2018-11-29T17:12:14.598Z,95596.28
2018-11-29T17:14:46.685Z,95608.98
2018-11-29T17:17:18.831Z,95611.02
2018-11-29T17:19:50.983Z,95598.91
2018-11-29T17:22:23.127Z,95600.11
2018-11-29T17:24:55.245Z,95599.66
2018-11-29T17:27:27.430Z,95599.56
2018-11-29T17:29:59.526Z,95604.84
2018-11-29T17:32:31.697Z,95593.63
2018-11-29T17:35:03.956Z,95605.23
2018-11-29T17:37:36.318Z,95601.47
2018-11-29T17:40:15.132Z,95589.94
2018-11-29T17:42:47.282Z,95591.81
2018-11-29T17:45:29.222Z,95586.33
2018-11-29T17:48:12.668Z,95587.45
2018-11-29T17:50:45.959Z,95579.16
2018-11-29T17:53:19.456Z,95571.84
2018-11-29T17:55:51.519Z,95570.19
2018-11-29T17:58:23.631Z,95567.67
2018-11-29T18:00:55.913Z,95565.85
2018-11-29T18:03:28.048Z,95568.73
2018-11-29T18:06:00.103Z,95568.13
2018-11-29T18:08:32.411Z,95551.05
2018-11-29T18:11:04.496Z,95550.00
2018-11-29T18:13:38.793Z,95540.91
2018-11-29T18:16:10.936Z,95536.41
2018-11-29T18:18:43.075Z,95535.43
2018-11-29T18:21:15.154Z,95534.77
2018-11-29T18:23:47.275Z,95532.23
2018-11-29T18:26:19.468Z,95526.13
2018-11-29T18:28:51.831Z,95538.47
2018-11-29T18:31:23.947Z,95531.97
2018-11-29T18:33:56.468Z,95523.49
2018-11-29T18:36:28.705Z,95523.59
2018-11-29T18:39:01.432Z,95521.53
2018-11-29T18:41:34.447Z,95512.28
2018-11-29T18:44:06.924Z,95510.29
2018-11-29T18:46:39.041Z,95520.83
2018-11-29T18:49:11.272Z,95516.28
2018-11-29T18:51:43.355Z,95517.09
2018-11-29T18:54:15.621Z,95516.07
2018-11-29T18:56:47.716Z,95512.78
2018-11-29T18:59:19.818Z,95500.99
2018-11-29T19:01:51.892Z,95501.67
2018-11-29T19:04:23.995Z,95507.02
2018-11-29T19:06:56.079Z,95505.32
2018-11-29T19:09:28.273Z,95506.34
2018-11-29T19:12:00.393Z,95504.10
2018-11-29T19:14:32.522Z,95490.94
2018-11-29T19:17:04.580Z,95493.79
2018-11-29T19:19:36.688Z,95493.50
2018-11-29T19:22:08.864Z,95493.50
2018-11-29T19:24:40.983Z,95497.37
2018-11-29T19:27:13.112Z,95492.70
2018-11-29T19:29:45.212Z,95486.05
2018-11-29T19:32:17.285Z,95481.13
2018-11-29T19:34:49.401Z,95473.92
2018-11-29T19:37:21.525Z,95488.91
2018-11-29T19:39:53.635Z,95479.23
2018-11-29T19:42:25.780Z,95471.41
2018-11-29T19:44:58.063Z,95483.80
2018-11-29T19:47:31.086Z,95485.16
2018-11-29T19:50:03.177Z,95491.17
2018-11-29T19:52:35.331Z,95503.91
2018-11-29T19:55:09.137Z,95506.95
2018-11-29T19:57:41.319Z,95508.72
2018-11-29T20:00:15.314Z,95513.30
2018-11-29T20:02:48.607Z,95515.34
2018-11-29T20:05:20.809Z,95521.92
2018-11-29T20:07:53.183Z,95524.69
2018-11-29T20:10:25.477Z,95523.02
2018-11-29T20:13:07.816Z,95517.08
2018-11-29T20:15:45.126Z,95515.53
2018-11-29T20:18:17.663Z,95512.84
2018-11-29T20:20:49.740Z,95510.94
2018-11-29T20:23:21.872Z,95507.66
2018-11-29T20:25:54.142Z,95502.80
2018-11-29T20:28:26.255Z,95491.82
2018-11-29T20:30:58.380Z,95481.29
2018-11-29T20:33:30.630Z,95485.25
2018-11-29T20:36:02.735Z,95488.40
2018-11-29T20:38:34.904Z,95498.71
2018-11-29T20:41:07.677Z,95499.33
2018-11-29T20:43:40.635Z,95499.19
2018-11-29T20:46:12.787Z,95495.61
2018-11-29T20:48:45.409Z,95496.28
2018-11-29T20:51:17.559Z,95492.58
2018-11-29T20:53:49.660Z,95498.01
2018-11-29T20:56:21.830Z,95491.80
2018-11-29T20:58:55.293Z,95492.19
2018-11-29T21:01:27.503Z,95489.50
2018-11-29T21:03:59.601Z,95483.66
2018-11-29T21:06:31.753Z,95488.77
2018-11-29T21:09:04.617Z,95501.69
2018-11-29T21:11:37.616Z,95491.58
2018-11-29T21:14:09.669Z,95491.22
2018-11-29T21:16:44.285Z,95485.41
2018-11-29T21:19:16.682Z,95492.25
2018-11-29T21:21:49.779Z,95491.82
2018-11-29T21:24:22.010Z,95492.69
2018-11-29T21:26:54.132Z,95490.94
2018-11-29T21:29:26.578Z,95484.89
2018-11-29T21:31:59.182Z,95479.71
2018-11-29T21:34:31.310Z,95473.09
2018-11-29T21:37:03.443Z,95478.61
2018-11-29T21:39:35.638Z,95489.39
2018-11-29T21:42:07.865Z,95483.63
2018-11-29T21:44:39.970Z,95475.74
2018-11-29T21:47:12.148Z,95483.70
2018-11-29T21:49:44.718Z,95477.92
2018-11-29T21:52:17.008Z,95477.72
2018-11-29T21:54:49.405Z,95475.41
2018-11-29T21:57:21.982Z,95461.31
2018-11-29T21:59:54.455Z,95464.36
2018-11-29T22:02:29.690Z,95462.27
2018-11-29T22:05:02.386Z,95455.27
2018-11-29T22:07:35.158Z,95460.47
2018-11-29T22:10:07.713Z,95452.74
2018-11-29T22:12:40.826Z,95457.11
2018-11-29T22:15:14.205Z,95448.66
2018-11-29T22:18:21.855Z,95449.27
2018-11-29T22:21:05.215Z,95458.30
2018-11-29T22:23:39.339Z,95456.30
2018-11-29T22:26:18.881Z,95453.20
2018-11-29T22:28:51.359Z,95448.34
2018-11-29T22:31:23.840Z,95446.56
2018-11-29T22:33:56.400Z,95441.42
2018-11-29T22:36:28.879Z,95439.98
2018-11-29T22:39:01.363Z,95435.85
2018-11-29T22:41:34.363Z,95444.33
2018-11-29T22:44:06.731Z,95433.51
2018-11-29T22:46:43.030Z,95436.61
2018-11-29T22:49:15.123Z,95439.53
2018-11-29T22:51:47.243Z,95433.21
2018-11-29T22:54:19.323Z,95437.16
2018-11-29T22:56:51.407Z,95430.97
2018-11-29T22:59:23.524Z,95426.92
2018-11-29T23:01:55.685Z,95431.38
2018-11-29T23:04:27.769Z,95433.70
2018-11-29T23:06:59.871Z,95427.60
2018-11-29T23:09:32.865Z,95427.95
2018-11-29T23:12:04.969Z,95429.55
2018-11-29T23:14:37.940Z,95429.86
2018-11-29T23:17:10.110Z,95427.30
2018-11-29T23:19:42.239Z,95426.84
2018-11-29T23:22:14.292Z,95431.56
2018-11-29T23:24:46.378Z,95424.63
2018-11-29T23:27:18.588Z,95418.45
2018-11-29T23:29:50.690Z,95423.84
2018-11-29T23:32:23.578Z,95427.59
2018-11-29T23:34:55.687Z,95427.59
2018-11-29T23:37:27.676Z,95431.78
2018-11-29T23:39:59.807Z,95429.08
2018-11-29T23:42:31.856Z,95424.28
2018-11-29T23:45:05.491Z,95419.44
2018-11-29T23:47:37.761Z,95423.50
2018-11-29T23:50:20.198Z,95423.42
2018-11-29T23:52:52.289Z,95423.27
2018-11-29T23:55:24.943Z,95423.69
2018-11-29T23:57:57.326Z,95427.51
